Time;durP1;ratioP1;P1;durP2;ratioP2;P2;SDS_P1;SDS_P2;PMS_P1;PMS_P2;Temp;Humidity;BMP_temperature;BMP_pressure;BME280_temperature;BME280_humidity;BME280_pressure;Samples;Min_cycle;Max_cycle;Signal;HPM_P1;HPM_P2
2021/12/17 00:00:23;;;;;;;17.13;6.27;;;5.70;99.90;;;;;;5073875;28;20052;-74
2021/12/17 00:05:51;;;;;;;12.77;6.23;;;5.70;99.90;;;;;;5073439;28;20124;-74
2021/12/17 00:08:19;;;;;;;32.60;16.27;;;5.70;99.90;;;;;;5073707;28;20069;-73
2021/12/17 00:10:47;;;;;;;21.77;8.60;;;5.70;99.90;;;;;;5073718;28;20044;-73
2021/12/17 00:13:13;;;;;;;13.37;6.27;;;5.70;99.90;;;;;;5073586;28;20048;-75
2021/12/17 00:15:40;;;;;;;17.30;6.27;;;5.70;99.90;;;;;;5072906;28;20040;-75
2021/12/17 00:18:15;;;;;;;19.67;8.17;;;5.60;99.90;;;;;;5073389;28;20363;-74
2021/12/17 00:40:09;;;;;;;18.63;6.03;;;5.60;99.90;;;;;;5073484;28;20044;-74
2021/12/17 00:40:33;;;;;;;15.67;5.40;;;5.50;99.90;;;;;;5073054;28;20055;-73
2021/12/17 00:48:38;;;;;;;18.30;6.83;;;5.50;99.90;;;;;;5072875;28;20174;-75
2021/12/17 00:53:56;;;;;;;18.90;6.67;;;5.50;99.90;;;;;;5041404;28;20052;-77
2021/12/17 00:56:23;;;;;;;12.40;6.03;;;5.50;99.90;;;;;;5072614;28;20036;-75
2021/12/17 00:58:50;;;;;;;13.50;6.23;;;5.50;99.90;;;;;;5072749;28;20044;-74
2021/12/17 01:01:18;;;;;;;11.63;6.53;;;5.50;99.90;;;;;;5072545;28;20517;-74
2021/12/17 01:03:46;;;;;;;11.40;7.17;;;5.50;99.90;;;;;;5072350;28;20052;-73
2021/12/17 01:06:14;;;;;;;15.37;6.17;;;5.50;99.90;;;;;;5072132;28;20070;-75
2021/12/17 01:08:41;;;;;;;19.47;7.93;;;5.50;99.90;;;;;;5072643;28;20048;-75
2021/12/17 01:11:08;;;;;;;10.50;6.47;;;5.50;99.90;;;;;;5072512;28;20053;-74
2021/12/17 01:13:38;;;;;;;12.93;6.40;;;5.50;99.90;;;;;;5072423;28;20044;-74
2021/12/17 01:16:05;;;;;;;15.93;5.90;;;5.50;99.90;;;;;;5072249;28;20071;-76
2021/12/17 01:18:44;;;;;;;20.43;6.57;;;5.50;99.90;;;;;;5072173;28;20446;-75
2021/12/17 01:21:28;;;;;;;11.53;5.27;;;5.50;99.90;;;;;;5072248;28;20439;-75
2021/12/17 01:24:15;;;;;;;14.07;5.47;;;5.60;99.90;;;;;;5072241;28;20048;-75
2021/12/17 01:40:58;;;;;;;11.33;6.23;;;5.50;99.90;;;;;;5072210;28;20094;-75
2021/12/17 01:43:27;;;;;;;13.73;6.23;;;5.50;99.90;;;;;;5071853;28;20054;-74
2021/12/17 01:45:54;;;;;;;14.57;6.90;;;5.50;99.90;;;;;;5071477;28;20452;-74
2021/12/17 01:48:28;;;;;;;30.40;7.33;;;5.40;99.90;;;;;;5071976;28;20045;-76
2021/12/17 01:59:25;;;;;;;16.73;6.20;;;5.40;99.90;;;;;;5009778;28;20041;-75
2021/12/17 02:01:58;;;;;;;11.98;5.25;;;5.40;99.90;;;;;;5058313;28;20048;-75
2021/12/17 02:04:25;;;;;;;16.60;5.93;;;5.40;99.90;;;;;;5071142;28;20040;-74
2021/12/17 02:06:51;;;;;;;18.10;6.20;;;5.50;99.90;;;;;;5070994;28;20056;-74
2021/12/17 02:09:54;;;;;;;12.77;5.27;;;5.40;99.90;;;;;;5071829;28;20405;-75
2021/12/17 02:12:40;;;;;;;14.30;6.00;;;5.40;99.90;;;;;;5071415;28;20511;-74
2021/12/17 02:21:18;;;;;;;10.90;4.97;;;5.30;99.90;;;;;;5071613;28;20052;-76
2021/12/17 02:29:57;;;;;;;14.20;5.07;;;5.40;99.90;;;;;;5071547;28;20087;-73
2021/12/17 02:32:26;;;;;;;12.70;5.73;;;5.40;99.90;;;;;;5071623;28;20045;-73
2021/12/17 02:35:14;;;;;;;17.73;5.57;;;5.40;99.90;;;;;;5070797;28;20440;-74
2021/12/17 02:37:45;;;;;;;13.53;6.20;;;5.50;99.90;;;;;;5071301;28;20048;-73
2021/12/17 02:42:21;;;;;;;15.07;6.53;;;5.50;99.90;;;;;;5071797;28;20044;-74
2021/12/17 02:45:45;;;;;;;12.97;4.83;;;5.40;99.90;;;;;;5070843;28;20182;-72
2021/12/17 02:48:14;;;;;;;12.20;4.53;;;5.40;99.90;;;;;;5071505;28;20197;-74
2021/12/17 02:50:42;;;;;;;15.37;5.30;;;5.40;99.90;;;;;;5071572;28;20045;-73
2021/12/17 02:53:11;;;;;;;12.60;4.07;;;5.50;99.90;;;;;;5071458;28;20048;-74
2021/12/17 02:55:40;;;;;;;13.23;4.80;;;5.50;99.90;;;;;;5070682;28;20048;-71
2021/12/17 02:58:08;;;;;;;22.17;5.40;;;5.50;99.90;;;;;;5071173;28;20048;-73
2021/12/17 03:00:36;;;;;;;18.87;5.13;;;5.50;99.90;;;;;;5071260;28;20048;-73
2021/12/17 03:03:05;;;;;;;13.80;6.50;;;5.40;99.90;;;;;;5071300;28;20037;-73
2021/12/17 03:05:33;;;;;;;14.70;4.77;;;5.40;99.90;;;;;;5070614;28;20051;-73
2021/12/17 03:08:00;;;;;;;12.60;4.77;;;5.40;99.90;;;;;;5072061;28;20135;-73
2021/12/17 03:10:28;;;;;;;12.67;4.17;;;5.40;99.90;;;;;;5074748;28;20267;-73
2021/12/17 03:12:59;;;;;;;11.17;5.20;;;5.40;99.90;;;;;;5074531;28;20102;-73
2021/12/17 03:15:34;;;;;;;18.53;5.73;;;5.40;99.90;;;;;;5074137;28;20049;-72
2021/12/17 03:23:39;;;;;;;14.13;5.17;;;5.40;99.90;;;;;;5074442;28;20055;-75
2021/12/17 03:26:09;;;;;;;16.77;4.70;;;5.40;99.90;;;;;;5074183;28;20063;-74
2021/12/17 03:28:36;;;;;;;10.27;5.80;;;5.40;99.90;;;;;;5074503;28;20044;-73
2021/12/17 03:31:04;;;;;;;13.67;4.47;;;5.40;99.90;;;;;;5074402;28;20094;-76
2021/12/17 03:33:31;;;;;;;11.40;4.40;;;5.40;99.90;;;;;;5074236;28;20162;-72
2021/12/17 03:35:58;;;;;;;12.27;4.83;;;5.50;99.90;;;;;;5074071;28;20049;-72
2021/12/17 03:38:25;;;;;;;17.70;4.67;;;5.40;99.90;;;;;;5074393;28;20066;-73
2021/12/17 03:41:03;;;;;;;12.27;5.93;;;5.40;99.90;;;;;;5074252;28;20071;-73
2021/12/17 03:43:32;;;;;;;7.70;4.00;;;5.50;99.90;;;;;;5074247;28;20056;-74
2021/12/17 03:46:01;;;;;;;11.17;5.27;;;5.40;99.90;;;;;;5073616;28;20143;-74
2021/12/17 03:48:30;;;;;;;11.93;4.43;;;5.50;99.90;;;;;;5074040;28;20439;-74
2021/12/17 03:50:57;;;;;;;9.47;4.70;;;5.50;99.90;;;;;;5074131;28;20075;-74
2021/12/17 03:53:24;;;;;;;11.00;4.17;;;5.50;99.90;;;;;;5074031;28;20463;-73
2021/12/17 03:55:51;;;;;;;17.70;6.00;;;5.50;99.90;;;;;;5073450;28;20053;-72
2021/12/17 03:58:19;;;;;;;13.10;4.40;;;5.50;99.90;;;;;;5074007;28;20041;-72
2021/12/17 04:00:47;;;;;;;15.50;4.53;;;5.50;99.90;;;;;;5073733;28;20076;-72
2021/12/17 04:03:14;;;;;;;10.80;5.83;;;5.50;99.90;;;;;;5073933;28;20052;-73
2021/12/17 04:05:41;;;;;;;11.40;3.73;;;5.50;99.90;;;;;;5073214;28;20048;-73
2021/12/17 04:08:08;;;;;;;14.77;4.37;;;5.50;99.90;;;;;;5073717;28;20053;-77
2021/12/17 04:10:41;;;;;;;16.07;4.63;;;5.50;99.90;;;;;;5073613;28;20052;-73
2021/12/17 04:13:24;;;;;;;12.40;4.53;;;5.50;99.90;;;;;;5073521;28;20045;-75
2021/12/17 04:15:57;;;;;;;11.90;4.30;;;5.50;99.90;;;;;;5073253;28;20056;-74
2021/12/17 04:18:24;;;;;;;12.97;4.90;;;5.50;99.90;;;;;;5073397;28;20477;-73
2021/12/17 04:20:51;;;;;;;13.10;4.70;;;5.50;99.90;;;;;;5073513;28;20049;-75
2021/12/17 04:23:21;;;;;;;11.00;4.23;;;5.50;99.90;;;;;;5073375;28;20072;-74
2021/12/17 04:25:48;;;;;;;14.97;4.47;;;5.50;99.90;;;;;;5072672;28;20056;-75
2021/12/17 04:28:18;;;;;;;18.00;5.57;;;5.50;99.90;;;;;;5073307;28;20053;-78
2021/12/17 04:30:45;;;;;;;16.00;5.03;;;5.50;99.90;;;;;;5073374;28;20059;-74
2021/12/17 04:33:14;;;;;;;13.33;5.17;;;5.50;99.90;;;;;;5073186;28;20099;-73
2021/12/17 04:35:41;;;;;;;18.53;5.83;;;5.50;99.90;;;;;;5072538;28;20401;-73
2021/12/17 04:38:11;;;;;;;14.27;4.73;;;5.50;99.90;;;;;;5073063;28;20044;-72
2021/12/17 04:40:41;;;;;;;22.83;5.23;;;5.50;99.90;;;;;;5072885;28;20048;-73
2021/12/17 04:43:19;;;;;;;9.50;3.70;;;5.50;99.90;;;;;;5073229;28;20500;-73
2021/12/17 04:45:53;;;;;;;13.90;6.27;;;5.50;99.90;;;;;;5072400;28;20112;-72
2021/12/17 04:59:26;;;;;;;20.17;5.20;;;5.50;99.90;;;;;;5036545;28;20072;-73
2021/12/17 05:01:53;;;;;;;10.10;5.13;;;5.50;99.90;;;;;;5074700;28;20101;-76
2021/12/17 05:04:22;;;;;;;14.97;4.27;;;5.50;99.90;;;;;;5076977;28;20072;-78
2021/12/17 05:06:49;;;;;;;13.13;5.30;;;5.50;99.90;;;;;;5077786;28;20412;-77
2021/12/17 05:09:27;;;;;;;10.80;4.50;;;5.40;99.90;;;;;;5075476;28;20094;-73
2021/12/17 05:20:25;;;;;;;13.10;4.53;;;5.40;99.90;;;;;;5072306;28;20083;-76
2021/12/17 05:22:56;;;;;;;15.10;4.33;;;5.30;99.90;;;;;;5072398;28;20052;-73
2021/12/17 05:25:26;;;;;;;12.98;4.20;;;5.40;99.90;;;;;;5071887;28;20135;-71
2021/12/17 05:27:53;;;;;;;9.53;4.20;;;5.40;99.90;;;;;;5072283;28;20131;-71
2021/12/17 05:30:20;;;;;;;14.57;4.83;;;5.40;99.90;;;;;;5071812;28;20075;-71
2021/12/17 05:32:47;;;;;;;17.23;4.80;;;5.40;99.90;;;;;;5072163;28;20139;-72
2021/12/17 05:35:15;;;;;;;10.73;4.50;;;5.40;99.90;;;;;;5071720;28;20049;-73
2021/12/17 05:37:43;;;;;;;13.43;3.73;;;5.40;99.90;;;;;;5072253;28;20379;-74
2021/12/17 05:40:11;;;;;;;8.83;4.47;;;5.40;99.90;;;;;;5071925;28;20498;-72
2021/12/17 05:42:41;;;;;;;9.97;6.33;;;5.40;99.90;;;;;;5072792;28;20106;-80
2021/12/17 05:45:20;;;;;;;9.43;3.83;;;5.40;99.90;;;;;;5073334;28;20634;-73
2021/12/17 05:47:47;;;;;;;13.23;4.30;;;5.40;99.90;;;;;;5072364;28;20053;-74
2021/12/17 05:50:16;;;;;;;9.80;4.37;;;5.40;99.90;;;;;;5072680;28;20045;-77
2021/12/17 05:52:43;;;;;;;9.03;3.70;;;5.40;99.90;;;;;;5071995;28;20511;-70
2021/12/17 05:55:10;;;;;;;11.47;4.47;;;5.40;99.90;;;;;;5071241;28;20441;-77
2021/12/17 05:57:37;;;;;;;9.20;4.17;;;5.40;99.90;;;;;;5071921;28;20417;-75
2021/12/17 06:00:06;;;;;;;15.23;6.27;;;5.30;99.90;;;;;;5071874;28;20045;-74
2021/12/17 06:02:33;;;;;;;15.50;4.50;;;5.40;99.90;;;;;;5071947;28;20106;-75
2021/12/17 06:05:00;;;;;;;7.87;5.07;;;5.30;99.90;;;;;;5071290;28;20136;-75
2021/12/17 06:07:29;;;;;;;11.87;5.47;;;5.40;99.90;;;;;;5071764;28;20390;-75
2021/12/17 06:10:01;;;;;;;9.10;3.70;;;5.40;99.90;;;;;;5071932;28;20054;-76
2021/12/17 06:12:28;;;;;;;10.57;3.80;;;5.30;99.90;;;;;;5072471;28;20060;-72
2021/12/17 06:14:54;;;;;;;12.23;4.67;;;5.30;99.90;;;;;;5071075;28;20118;-73
2021/12/17 06:17:21;;;;;;;11.17;4.27;;;5.20;99.90;;;;;;5071793;28;20389;-73
2021/12/17 06:19:49;;;;;;;14.07;4.30;;;5.20;99.90;;;;;;5071887;28;20048;-75
2021/12/17 06:22:16;;;;;;;17.20;4.93;;;5.20;99.90;;;;;;5071843;28;20052;-74
2021/12/17 06:24:45;;;;;;;16.93;4.07;;;5.20;99.90;;;;;;5071320;28;20459;-75
2021/12/17 06:27:13;;;;;;;17.50;5.13;;;5.20;99.90;;;;;;5071362;28;20409;-75
2021/12/17 06:29:39;;;;;;;8.47;4.67;;;5.20;99.90;;;;;;5071501;28;20171;-75
2021/12/17 06:32:08;;;;;;;7.90;3.73;;;5.20;99.90;;;;;;5071536;28;20493;-74
2021/12/17 06:34:36;;;;;;;6.93;4.10;;;5.20;99.90;;;;;;5070590;28;20076;-74
2021/12/17 06:37:04;;;;;;;12.73;4.03;;;5.20;99.90;;;;;;5071976;28;20048;-75
2021/12/17 06:39:33;;;;;;;12.83;4.80;;;5.20;99.90;;;;;;5071555;28;20040;-75
2021/12/17 06:42:03;;;;;;;15.43;4.40;;;5.10;99.90;;;;;;5071534;28;20079;-75
2021/12/17 06:44:31;;;;;;;12.40;4.63;;;5.10;99.90;;;;;;5074101;28;20393;-76
2021/12/17 06:47:03;;;;;;;18.87;4.90;;;5.10;99.90;;;;;;5075114;28;20044;-76
2021/12/17 06:49:45;;;;;;;12.97;4.77;;;5.10;99.90;;;;;;5075356;28;20076;-76
2021/12/17 06:55:24;;;;;;;16.40;5.60;;;5.10;99.90;;;;;;5012373;28;20053;-75
2021/12/17 06:58:36;;;;;;;18.03;7.00;;;5.10;99.90;;;;;;5066781;28;20424;-76
2021/12/17 07:01:14;;;;;;;9.10;4.90;;;5.10;99.90;;;;;;5074752;28;20055;-76
2021/12/17 07:06:44;;;;;;;14.67;5.80;;;5.10;99.90;;;;;;5075023;28;20052;-74
2021/12/17 07:09:54;;;;;;;9.33;4.43;;;5.10;99.90;;;;;;5075093;28;20044;-76
2021/12/17 07:18:00;;;;;;;9.87;5.90;;;5.10;99.90;;;;;;5075042;28;20515;-76
2021/12/17 07:23:14;;;;;;;11.47;4.77;;;5.10;99.90;;;;;;5072208;28;20524;-73
2021/12/17 07:34:01;;;;;;;14.47;6.00;;;5.10;99.90;;;;;;5074191;28;20056;-74
2021/12/17 07:36:37;;;;;;;15.83;5.53;;;5.10;99.90;;;;;;5074132;28;20515;-72
2021/12/17 07:39:04;;;;;;;13.63;4.50;;;5.10;99.90;;;;;;5074346;28;20131;-72
2021/12/17 07:41:31;;;;;;;9.47;4.27;;;5.10;99.90;;;;;;5074486;28;20057;-73
2021/12/17 07:44:01;;;;;;;15.10;5.40;;;5.20;99.90;;;;;;5074225;28;20052;-80
2021/12/17 07:46:32;;;;;;;11.43;4.70;;;5.10;99.90;;;;;;5074203;28;20136;-74
2021/12/17 07:49:00;;;;;;;9.57;4.27;;;5.10;99.90;;;;;;5074386;28;20136;-76
2021/12/17 07:51:28;;;;;;;18.07;6.17;;;5.20;99.90;;;;;;5074404;28;20072;-76
2021/12/17 07:53:56;;;;;;;16.00;4.97;;;5.20;99.90;;;;;;5073749;28;20095;-77
2021/12/17 07:56:26;;;;;;;10.77;5.30;;;5.20;99.90;;;;;;5073510;28;20080;-75
2021/12/17 07:58:54;;;;;;;16.83;5.73;;;5.20;99.90;;;;;;5074007;28;20054;-75
2021/12/17 08:01:21;;;;;;;18.77;6.23;;;5.20;99.90;;;;;;5073881;28;20080;-74
2021/12/17 08:03:50;;;;;;;17.87;5.33;;;5.10;99.90;;;;;;5073843;28;20135;-73
2021/12/17 08:06:17;;;;;;;16.50;5.83;;;5.20;99.90;;;;;;5073384;28;20048;-74
2021/12/17 08:08:45;;;;;;;14.47;5.90;;;5.20;99.90;;;;;;5073599;28;20477;-75
2021/12/17 08:11:12;;;;;;;13.43;5.67;;;5.20;99.90;;;;;;5073734;28;20107;-74
2021/12/17 08:13:40;;;;;;;19.03;7.23;;;5.10;99.90;;;;;;5073813;28;20052;-73
2021/12/17 08:16:30;;;;;;;18.13;6.93;;;5.10;99.90;;;;;;5072885;28;20515;-73
2021/12/17 08:24:54;;;;;;;10.43;4.70;;;5.30;99.90;;;;;;5072850;28;20550;-73
2021/12/17 08:27:28;;;;;;;22.40;5.80;;;5.20;99.90;;;;;;5073312;28;20463;-70
2021/12/17 08:30:20;;;;;;;10.23;4.27;;;5.30;99.90;;;;;;5073557;28;20055;-71
2021/12/17 08:32:45;;;;;;;10.73;4.37;;;5.20;99.90;;;;;;5073126;28;20492;-73
2021/12/17 08:35:13;;;;;;;12.47;4.67;;;5.30;99.90;;;;;;5072734;28;20048;-75
2021/12/17 08:37:40;;;;;;;12.40;4.90;;;5.30;99.90;;;;;;5073466;28;20485;-78
2021/12/17 08:40:09;;;;;;;17.23;5.40;;;5.30;99.90;;;;;;5073176;28;20102;-74
2021/12/17 08:42:35;;;;;;;7.63;4.10;;;5.40;99.90;;;;;;5073211;28;20044;-74
2021/12/17 08:45:02;;;;;;;12.70;4.73;;;5.30;99.90;;;;;;5072663;28;20045;-72
2021/12/17 08:47:29;;;;;;;13.40;5.60;;;5.30;99.90;;;;;;5073034;28;20485;-73
2021/12/17 08:49:57;;;;;;;11.00;5.13;;;5.30;99.90;;;;;;5073179;28;20090;-75
2021/12/17 08:52:25;;;;;;;6.10;3.70;;;5.30;99.90;;;;;;5072989;28;20044;-76
2021/12/17 08:54:51;;;;;;;7.37;3.73;;;5.40;99.90;;;;;;5072094;28;20459;-73
2021/12/17 08:57:18;;;;;;;12.77;4.70;;;5.50;99.90;;;;;;5073091;28;20493;-76
2021/12/17 08:59:45;;;;;;;5.63;3.23;;;5.50;99.90;;;;;;5073758;28;20459;-75
2021/12/17 09:02:11;;;;;;;19.60;8.80;;;5.50;99.90;;;;;;5072939;28;20099;-76
2021/12/17 09:04:38;;;;;;;20.50;5.43;;;5.50;99.90;;;;;;5072972;28;20040;-73
2021/12/17 09:07:06;;;;;;;7.80;3.83;;;5.50;99.90;;;;;;5071994;28;20048;-71
2021/12/17 09:09:34;;;;;;;8.00;4.50;;;5.50;99.90;;;;;;5072833;28;20049;-75
2021/12/17 09:12:01;;;;;;;10.83;4.47;;;5.60;99.90;;;;;;5072585;28;20048;-70
2021/12/17 09:14:28;;;;;;;9.13;3.90;;;5.60;99.90;;;;;;5071928;28;20510;-73
2021/12/17 09:16:55;;;;;;;22.20;10.23;;;5.60;99.90;;;;;;5072354;28;20048;-75
2021/12/17 09:19:22;;;;;;;9.97;5.57;;;5.60;99.90;;;;;;5072436;28;20132;-75
2021/12/17 09:21:49;;;;;;;15.43;6.03;;;5.60;99.90;;;;;;5072247;28;20423;-72
2021/12/17 09:24:16;;;;;;;18.17;9.33;;;5.60;99.90;;;;;;5071723;28;20135;-72
2021/12/17 09:26:44;;;;;;;10.57;5.53;;;5.70;99.90;;;;;;5072232;28;20558;-73
2021/12/17 09:29:10;;;;;;;16.73;8.20;;;5.70;99.90;;;;;;5072278;28;20044;-72
2021/12/17 09:31:37;;;;;;;11.00;6.43;;;5.70;99.90;;;;;;5072162;28;20041;-72
2021/12/17 09:34:04;;;;;;;16.30;5.43;;;5.80;99.90;;;;;;5071722;28;20139;-73
2021/12/17 09:36:33;;;;;;;19.33;7.87;;;5.80;99.90;;;;;;5071803;28;20056;-74
2021/12/17 09:39:00;;;;;;;11.93;5.03;;;5.80;99.90;;;;;;5071917;28;20484;-72
2021/12/17 09:41:27;;;;;;;13.80;4.60;;;5.90;99.90;;;;;;5072161;28;20060;-73
2021/12/17 09:43:55;;;;;;;3.73;3.00;;;5.90;99.90;;;;;;5072000;28;20051;-75
2021/12/17 09:46:23;;;;;;;5.47;3.50;;;5.90;99.90;;;;;;5071759;28;20135;-78
2021/12/17 09:48:50;;;;;;;20.17;5.03;;;5.90;99.90;;;;;;5072084;28;20053;-75
2021/12/17 09:51:20;;;;;;;9.73;4.00;;;6.00;99.90;;;;;;5072188;28;20451;-78
2021/12/17 09:53:47;;;;;;;7.13;4.47;;;6.00;99.90;;;;;;5072352;28;20052;-75
2021/12/17 09:56:14;;;;;;;8.27;3.20;;;6.10;99.90;;;;;;5071787;28;20404;-75
2021/12/17 09:58:41;;;;;;;14.93;6.43;;;6.10;99.90;;;;;;5072623;28;20102;-76
2021/12/17 10:01:09;;;;;;;23.70;8.27;;;6.10;99.90;;;;;;5072072;28;20122;-73
2021/12/17 10:03:35;;;;;;;9.03;4.07;;;6.00;99.90;;;;;;5072020;28;20114;-75
2021/12/17 10:06:02;;;;;;;16.43;6.93;;;6.10;99.90;;;;;;5071446;28;20071;-78
2021/12/17 10:08:28;;;;;;;16.63;6.13;;;6.10;99.90;;;;;;5072834;28;20083;-79
2021/12/17 10:10:58;;;;;;;6.67;2.60;;;6.10;99.90;;;;;;5072559;28;20463;-76
2021/12/17 10:13:26;;;;;;;7.90;3.47;;;6.00;99.90;;;;;;5072099;28;20493;-76
2021/12/17 10:15:56;;;;;;;6.57;4.13;;;6.00;99.90;;;;;;5074487;28;20102;-75
2021/12/17 10:18:36;;;;;;;9.47;4.30;;;6.00;99.90;;;;;;5075675;28;20048;-70
2021/12/17 10:21:06;;;;;;;3.43;2.70;;;6.10;99.90;;;;;;5077629;28;20344;-73
2021/12/17 10:23:34;;;;;;;9.47;3.20;;;6.10;99.90;;;;;;5075828;28;20045;-75
2021/12/17 10:26:01;;;;;;;9.77;3.23;;;6.10;99.90;;;;;;5075236;28;20048;-75
2021/12/17 10:28:30;;;;;;;6.57;2.93;;;6.20;99.90;;;;;;5075810;28;20048;-75
2021/12/17 10:30:57;;;;;;;9.67;4.37;;;6.20;99.90;;;;;;5075559;28;20489;-75
2021/12/17 10:33:26;;;;;;;5.80;2.90;;;6.20;99.90;;;;;;5075894;28;20485;-74
2021/12/17 10:35:57;;;;;;;7.43;2.83;;;6.20;99.90;;;;;;5075165;28;20044;-75
2021/12/17 10:38:26;;;;;;;8.50;4.30;;;6.20;99.90;;;;;;5075521;28;20048;-75
2021/12/17 10:41:00;;;;;;;4.87;2.67;;;6.20;99.90;;;;;;5076380;28;20094;-78
2021/12/17 10:43:33;;;;;;;4.87;2.47;;;6.20;99.90;;;;;;5075938;28;20055;-74
2021/12/17 10:46:05;;;;;;;5.20;2.60;;;6.20;99.90;;;;;;5075156;28;20095;-76
2021/12/17 10:48:37;;;;;;;3.60;1.80;;;6.20;99.90;;;;;;5075437;28;20048;-72
2021/12/17 10:51:20;;;;;;;3.42;2.35;;;6.20;99.90;;;;;;5075545;28;20054;-72
2021/12/17 10:53:53;;;;;;;6.38;1.67;;;6.20;99.90;;;;;;5075377;28;20048;-75
2021/12/17 10:56:21;;;;;;;3.80;2.00;;;6.30;99.90;;;;;;5074953;28;20056;-74
2021/12/17 10:59:00;;;;;;;6.00;2.40;;;6.30;99.90;;;;;;5075759;28;20126;-73
2021/12/17 11:01:33;;;;;;;6.73;1.73;;;6.30;99.90;;;;;;5074956;28;20493;-73
2021/12/17 11:04:08;;;;;;;3.78;1.60;;;6.30;99.90;;;;;;5074335;28;20516;-73
2021/12/17 11:06:51;;;;;;;4.53;1.67;;;6.30;99.90;;;;;;5075239;28;20102;-73
2021/12/17 11:09:44;;;;;;;4.53;2.17;;;6.20;99.90;;;;;;5080774;28;20044;-75
2021/12/17 11:12:29;;;;;;;8.03;1.77;;;6.30;99.90;;;;;;5060370;28;20102;-72
2021/12/17 11:15:08;;;;;;;5.23;1.87;;;6.20;99.90;;;;;;5075824;28;20044;-73
2021/12/17 11:17:35;;;;;;;4.63;1.57;;;6.20;99.90;;;;;;5074676;28;20458;-73
2021/12/17 11:20:06;;;;;;;9.13;1.53;;;6.20;99.90;;;;;;5074805;28;20506;-75
2021/12/17 11:22:34;;;;;;;2.92;1.83;;;6.20;99.90;;;;;;5074511;28;20080;-73
2021/12/17 11:25:01;;;;;;;4.93;2.03;;;6.20;99.90;;;;;;5074028;28;20098;-71
2021/12/17 11:27:28;;;;;;;6.93;2.17;;;6.30;99.90;;;;;;5074290;28;20169;-71
2021/12/17 11:29:55;;;;;;;4.07;2.20;;;6.20;99.90;;;;;;5073578;28;20511;-71
2021/12/17 11:32:22;;;;;;;4.50;1.73;;;6.30;99.90;;;;;;5074532;28;20045;-72
2021/12/17 11:34:49;;;;;;;6.53;1.73;;;6.30;99.90;;;;;;5073796;28;20045;-74
2021/12/17 11:37:16;;;;;;;7.13;2.10;;;6.30;99.90;;;;;;5074626;28;20052;-71
2021/12/17 11:39:49;;;;;;;6.83;1.77;;;6.30;99.90;;;;;;5074422;28;20045;-73
2021/12/17 11:42:29;;;;;;;7.10;2.95;;;6.30;99.90;;;;;;5074389;28;20546;-71
2021/12/17 11:47:38;;;;;;;6.10;1.93;;;6.30;99.90;;;;;;5073780;28;20444;-74
2021/12/17 11:50:08;;;;;;;6.90;1.83;;;6.40;99.90;;;;;;5074406;28;20044;-73
2021/12/17 11:52:44;;;;;;;3.53;2.27;;;6.30;99.90;;;;;;5073966;28;20500;-73
2021/12/17 11:55:27;;;;;;;4.20;1.60;;;6.30;99.90;;;;;;5073695;28;20052;-74
2021/12/17 11:57:57;;;;;;;4.13;1.73;;;6.30;99.90;;;;;;5074166;28;20048;-73
2021/12/17 12:00:29;;;;;;;2.67;2.30;;;6.30;99.90;;;;;;5073964;28;20041;-72
2021/12/17 12:03:13;;;;;;;12.83;4.10;;;6.30;99.90;;;;;;5073840;28;20056;-72
2021/12/17 12:05:43;;;;;;;1.83;1.33;;;6.30;99.90;;;;;;5073269;28;20459;-74
2021/12/17 12:08:26;;;;;;;5.17;1.70;;;6.30;99.90;;;;;;5074881;28;20045;-75
2021/12/17 12:11:21;;;;;;;4.10;1.30;;;6.30;99.90;;;;;;5074101;28;20044;-72
2021/12/17 12:13:51;;;;;;;4.25;1.38;;;6.40;99.90;;;;;;5061105;28;20055;-77
2021/12/17 12:16:21;;;;;;;7.50;1.50;;;6.30;99.90;;;;;;5074560;28;20048;-75
2021/12/17 12:18:50;;;;;;;11.23;3.53;;;6.40;99.90;;;;;;5074226;28;20447;-75
2021/12/17 12:21:18;;;;;;;12.87;3.30;;;6.40;99.90;;;;;;5073973;28;20055;-71
2021/12/17 12:23:48;;;;;;;17.52;7.25;;;6.30;99.90;;;;;;5073817;28;20049;-71
2021/12/17 12:26:35;;;;;;;36.53;7.55;;;6.40;99.90;;;;;;5072793;28;20045;-73
2021/12/17 12:29:11;;;;;;;16.17;4.10;;;6.40;99.90;;;;;;5073737;28;20088;-73
2021/12/17 12:31:53;;;;;;;6.63;2.63;;;6.40;99.90;;;;;;5073725;28;20485;-75
2021/12/17 12:34:24;;;;;;;8.85;1.95;;;6.40;99.90;;;;;;5073935;28;20102;-72
2021/12/17 12:36:55;;;;;;;8.05;2.05;;;6.40;99.90;;;;;;5074986;28;20059;-75
2021/12/17 12:42:14;;;;;;;3.75;1.75;;;6.40;99.90;;;;;;5076012;28;20640;-74
2021/12/17 12:45:11;;;;;;;5.07;1.63;;;6.40;99.90;;;;;;5077273;28;20049;-74
2021/12/17 12:47:43;;;;;;;2.97;1.87;;;6.40;99.90;;;;;;5076757;28;20076;-76
2021/12/17 12:50:13;;;;;;;4.47;2.13;;;6.40;99.90;;;;;;5084104;28;20051;-76
2021/12/17 12:52:43;;;;;;;5.78;2.05;;;6.40;99.90;;;;;;5074372;28;20090;-72
2021/12/17 12:55:15;;;;;;;4.07;2.40;;;6.40;99.90;;;;;;5073013;28;20504;-75
2021/12/17 12:57:45;;;;;;;3.60;1.73;;;6.40;99.90;;;;;;5074861;28;20063;-72
2021/12/17 13:00:16;;;;;;;1.30;1.20;;;6.30;99.90;;;;;;5073203;28;20052;-72
2021/12/17 13:02:44;;;;;;;4.17;1.50;;;6.30;99.90;;;;;;5073376;28;20053;-74
2021/12/17 13:05:12;;;;;;;3.90;1.63;;;6.40;99.90;;;;;;5073647;28;20055;-73
2021/12/17 13:07:47;;;;;;;3.77;1.43;;;6.40;99.90;;;;;;5075542;28;20488;-75
2021/12/17 13:10:16;;;;;;;1.60;1.30;;;6.40;99.90;;;;;;5077415;28;20108;-73
2021/12/17 13:12:55;;;;;;;3.20;2.10;;;6.40;99.90;;;;;;5073517;28;20102;-74
2021/12/17 13:21:16;;;;;;;4.10;1.73;;;6.40;99.90;;;;;;5073192;28;20097;-72
2021/12/17 13:23:48;;;;;;;;;;;6.40;99.90;;;;;;5074498;28;20063;-76
2021/12/17 13:26:16;;;;;;;2.63;1.83;;;6.40;99.90;;;;;;5074085;28;19927;-77
2021/12/17 13:28:51;;;;;;;2.78;1.67;;;6.40;99.90;;;;;;5075077;28;20083;-77
2021/12/17 13:31:40;;;;;;;4.13;2.43;;;6.40;99.90;;;;;;5073029;28;20044;-78
2021/12/17 13:34:14;;;;;;;4.15;2.08;;;6.40;99.90;;;;;;5072364;28;20078;-73
2021/12/17 13:36:54;;;;;;;2.38;1.52;;;6.40;99.90;;;;;;5073720;28;20040;-77
2021/12/17 13:39:23;;;;;;;8.20;2.37;;;6.40;99.90;;;;;;5073077;28;20092;-75
2021/12/17 13:41:52;;;;;;;4.63;1.57;;;6.40;99.90;;;;;;5072728;28;20408;-74
2021/12/17 13:44:41;;;;;;;9.68;2.88;;;6.40;99.90;;;;;;5072041;28;20496;-74
2021/12/17 13:47:14;;;;;;;6.57;2.92;;;6.40;99.90;;;;;;5069748;28;20511;-74
2021/12/17 13:49:41;;;;;;;4.83;2.30;;;6.40;99.90;;;;;;5072997;28;20082;-74
2021/12/17 13:52:10;;;;;;;5.40;2.57;;;6.40;99.90;;;;;;5072318;28;20049;-75
2021/12/17 13:54:38;;;;;;;7.83;3.33;;;6.40;99.90;;;;;;5071476;28;20214;-75
2021/12/17 13:57:06;;;;;;;1.65;1.55;;;6.40;99.90;;;;;;5072859;28;20070;-76
2021/12/17 13:59:36;;;;;;;3.73;2.87;;;6.40;99.90;;;;;;5072507;28;20485;-74
2021/12/17 14:02:09;;;;;;;6.55;1.85;;;6.40;99.90;;;;;;5072605;28;20045;-74
2021/12/17 14:04:37;;;;;;;5.13;1.63;;;6.30;99.90;;;;;;5071794;28;20428;-75
2021/12/17 14:07:08;;;;;;;6.53;2.42;;;6.30;99.90;;;;;;5072476;28;20049;-74
2021/12/17 14:09:35;;;;;;;3.43;1.53;;;6.30;99.90;;;;;;5072203;28;20044;-74
2021/12/17 14:12:09;;;;;;;3.50;2.03;;;6.30;99.90;;;;;;5072371;28;20055;-74
2021/12/17 14:14:38;;;;;;;7.13;1.98;;;6.30;99.90;;;;;;5075008;28;20048;-73
2021/12/17 14:17:08;;;;;;;1.88;1.38;;;6.30;99.90;;;;;;5072503;28;20053;-74
2021/12/17 14:19:39;;;;;;;5.50;1.70;;;6.30;99.90;;;;;;5071897;28;20049;-74
2021/12/17 14:22:26;;;;;;;6.15;2.22;;;6.30;99.90;;;;;;5071921;28;20546;-72
2021/12/17 14:24:53;;;;;;;5.80;2.20;;;6.30;99.90;;;;;;5071362;28;20114;-73
2021/12/17 14:27:20;;;;;;;7.23;2.60;;;6.30;99.90;;;;;;5072032;28;20132;-75
2021/12/17 14:30:00;;;;;;;5.87;2.40;;;6.30;99.90;;;;;;5072068;28;20048;-75
2021/12/17 14:32:27;;;;;;;5.07;1.57;;;6.20;99.90;;;;;;5071998;28;20044;-74
2021/12/17 14:34:54;;;;;;;5.90;2.20;;;6.20;99.90;;;;;;5071229;28;20557;-75
2021/12/17 14:37:20;;;;;;;2.03;1.50;;;6.20;99.90;;;;;;5071502;28;20493;-75
2021/12/17 14:39:48;;;;;;;4.60;2.03;;;6.20;99.90;;;;;;5071555;28;20045;-75
2021/12/17 14:42:30;;;;;;;5.32;2.53;;;6.20;99.90;;;;;;5071503;28;20072;-74
2021/12/17 14:45:04;;;;;;;4.93;1.98;;;6.20;99.90;;;;;;5071162;28;20044;-75
2021/12/17 14:47:36;;;;;;;7.27;2.17;;;6.10;99.90;;;;;;5071659;28;20044;-75
2021/12/17 15:00:58;;;;;;;3.67;1.50;;;6.10;99.90;;;;;;5071404;28;20048;-74
2021/12/17 15:03:39;;;;;;;6.37;2.30;;;6.00;99.90;;;;;;5071091;28;20044;-75
2021/12/17 15:06:06;;;;;;;4.63;1.90;;;6.00;99.90;;;;;;5074816;28;20056;-75
2021/12/17 15:08:33;;;;;;;3.80;1.53;;;6.00;99.90;;;;;;5075610;28;20130;-76
2021/12/17 15:11:03;;;;;;;3.07;2.60;;;6.00;99.90;;;;;;5075162;28;20044;-74
2021/12/17 15:13:30;;;;;;;8.63;2.00;;;6.00;99.90;;;;;;5075143;28;20435;-73
2021/12/17 15:15:58;;;;;;;6.10;1.40;;;6.00;99.90;;;;;;5074195;28;20048;-74
2021/12/17 15:18:25;;;;;;;5.43;1.33;;;6.00;99.90;;;;;;5074976;28;20053;-73
2021/12/17 15:20:53;;;;;;;5.17;1.77;;;6.00;99.90;;;;;;5074947;28;20123;-74
2021/12/17 15:23:22;;;;;;;9.27;1.87;;;6.00;99.90;;;;;;5075040;28;20045;-75
2021/12/17 15:25:49;;;;;;;1.73;1.07;;;6.00;99.90;;;;;;5073936;28;20055;-73
2021/12/17 15:28:18;;;;;;;1.70;1.37;;;6.00;99.90;;;;;;5074526;28;20578;-73
2021/12/17 15:30:47;;;;;;;44.67;20.60;;;5.90;99.90;;;;;;5074592;28;20459;-73
2021/12/17 15:33:16;;;;;;;7.50;3.57;;;6.00;99.90;;;;;;5074466;28;20106;-74